Aviation Digital Data Service (ADDS)

Output produced by METARs form (1210 UTC 24 February 2018)
found at http://aviationweather.gov/adds/metars/
 
EFJY 241150Z AUTO 33009KT 9999 -SHSN FEW015 M13/M16 Q1038
EFHA 241150Z AUTO 02007KT 9999 -SHSN NCD M13/M16 Q1038
EFTP 241150Z AUTO 02006KT CAVOK M13/M17 Q1038
EFMI 241150Z AUTO 01005KT 290V080 9999 FEW021 M12/M17 Q1037
EFKU 241150Z AUTO 31006KT CAVOK M12/M16 Q1038
EFKI 241150Z 02004KT 9999 FEW020 SCT200 M12/M16 Q1039
EFLP 241150Z AUTO 33007KT CAVOK M15/M19 Q1035
EFSI 241150Z AUTO 01004KT 330V060 9999 FEW007 M12/M16 Q1040
EFTU 241150Z AUTO 05008KT 020V080 CAVOK M11/M18 Q1038